WEATHER/FLIGHT PLANNING

Hattiesburg Radar

 

 

 

 

Weather Links

Flight Planning Links

 

METAR

2019/03/26 00:53 KHBG 260053Z AUTO 27004KT 10SM SCT055 21/15 A3003 RMK AO2 SLP166 T02110150

TAF

2019/03/25 18:22 TAF KHBG 251720Z 2518/2618 26011G17KT P6SM SCT025 FM252000 26011G17KT P6SM VCTS BKN025CB FM260000 33006KT P6SM SCT150 FM261100 35006KT 6SM BR OVC025